SBTASBBI

Guest
Details From SBTA - BASE DE AVIACAO DE TAUBATE
To SBBI - Curitiba Bacacheri
Flight Number -
Tags generated
Created
Modified
Stats Distance 249 nm / 462 km
Max Altitude 24,700 ft / 7,529 m
Waypoints 5
Social Downloads 1
Likes 0
Share VATSIM

Download

Looking for another format? Having issues loading an existing format? Contact us
Advertisement - Login to hide

Notes

Basic altitude profile: - Ascent Rate: 2500ft/min - Ascent Speed: 90kts - Cruise Altitude: 35000ft - Cruise Speed: 120kts - Descent Rate: 1500ft/min - Descent Speed: 120kts Options: - Use NATs: yes - Use PACOTS: yes - Use low airways: yes - Use high airways: no

Route

SBTA CGO G449 CLARO SBBI

ID Type Via Altitude Latitude Longitude Leg Dist Tot Dist Heading (true) Name
O SBTA APT - 0 ft / 0 m -23.04013˚ -45.51601˚ - 0 nm - BASE DE AVIACAO DE TAUBATE
CGO VOR - 24,700 ft / 7,529 m -23.62750˚ -46.65467˚ 72 nm 72 nm 240° / 241° CONGONHAS VOR-DME
NIBGA FIX G449 (AWY-LO) 24,500 ft / 7,468 m -24.07883˚ -47.23967˚ 42 nm 114 nm 230° / 230° -
CLARO FIX G449 (AWY-LO) 9,500 ft / 2,896 m -25.10833˚ -48.59967˚ 96 nm 210 nm 230° / 231° -
O SBBI APT - 0 ft / 0 m -25.40508˚ -49.23204˚ 38 nm 249 nm 242° / 243° Curitiba Bacacheri

Altitude Profile

Advertisement - Login to hide

Weather


0- 5 10 15 20 25 30 35+ Temperature / ° C

Clouds and Precipitation
Forecast for 2017-12-13 00:00 UTC. Updated 18 minutes ago

Ground ~20,000 ft ~40,000 ft Winds

SBTA

Details ICAO SBTA
Name BASE DE AVIACAO DE TAUBATE
Region Brazil
Timezone America/Sao_Paulo (UTC-2.0)
Stats Elevation 1,908 ft / 582 m (AMSL)
Location -23.040133° -45.516010°
Runways 1
Magnetic Variation 21.883° W

METAR

SBTA 122100Z VRB11KT 9999 SCT025 SCT040 23/14 Q1016

Decode

TAF

Not found

Departure Runways

ID Width Length Bearing (true) Bearing (mag) Surface Threshold Offset Overrun Length
08 98 ft / 30 m 4,900 ft / 1,494 m 56.28° 78.16° Asphalt 1,275 ft / 389 m 200 ft / 61 m
26 98 ft / 30 m 4,900 ft / 1,494 m 236.27° 258.15° Asphalt 0 ft / 0 m 200 ft / 61 m

SBBI

Details ICAO SBBI (BFH)
Name Curitiba Bacacheri
Region Brazil
Timezone America/Sao_Paulo (UTC-2.0)
Stats Elevation 3,057 ft / 932 m (AMSL)
Location -25.405079° -49.232036°
Runways 1
Magnetic Variation 19.613° W

METAR

SBBI 122100Z 08008KT 9999 BKN013 OVC019 16/13 Q1020

Decode

TAF

TAF SBBI 121400Z 1218/1306 10008KT 9999 BKN020 TX23/1218Z TN12/1305Z BECMG 1222/1224 04005KT 8000 BKN006 RMK PEB

Decode

Destination Runways

ID Width Length Bearing (true) Bearing (mag) Surface Threshold Offset Overrun Length
18 98 ft / 30 m 4,591 ft / 1,399 m 157.57° 177.18° Asphalt 527 ft / 161 m 0 ft / 0 m
36 98 ft / 30 m 4,591 ft / 1,399 m 337.56° 357.17° Asphalt 350 ft / 107 m 0 ft / 0 m